sensor_id;sensor_type;location;lat;lon;timestamp;temperature;humidity
15413;DHT22;7805;49.554;7.632;2023-11-22T00:01:34;7.50;99.90
15413;DHT22;7805;49.554;7.632;2023-11-22T00:04:00;7.50;99.90
15413;DHT22;7805;49.554;7.632;2023-11-22T00:06:26;7.50;99.90
15413;DHT22;7805;49.554;7.632;2023-11-22T00:08:52;7.50;99.90
15413;DHT22;7805;49.554;7.632;2023-11-22T00:11:18;7.50;99.90
15413;DHT22;7805;49.554;7.632;2023-11-22T00:13:44;7.50;99.90
15413;DHT22;7805;49.554;7.632;2023-11-22T00:16:10;7.50;99.90
15413;DHT22;7805;49.554;7.632;2023-11-22T00:18:36;7.50;99.90
15413;DHT22;7805;49.554;7.632;2023-11-22T00:21:03;7.50;99.90
15413;DHT22;7805;49.554;7.632;2023-11-22T00:23:28;7.60;99.90
15413;DHT22;7805;49.554;7.632;2023-11-22T00:25:55;7.60;99.90
15413;DHT22;7805;49.554;7.632;2023-11-22T00:28:23;7.50;99.90
15413;DHT22;7805;49.554;7.632;2023-11-22T00:30:48;7.40;99.90
15413;DHT22;7805;49.554;7.632;2023-11-22T00:33:14;7.40;99.90
15413;DHT22;7805;49.554;7.632;2023-11-22T00:35:40;7.50;99.90
15413;DHT22;7805;49.554;7.632;2023-11-22T00:38:05;7.50;99.90
15413;DHT22;7805;49.554;7.632;2023-11-22T00:40:31;7.60;99.90
15413;DHT22;7805;49.554;7.632;2023-11-22T00:42:57;7.50;99.90
15413;DHT22;7805;49.554;7.632;2023-11-22T00:45:23;7.50;99.90
15413;DHT22;7805;49.554;7.632;2023-11-22T00:47:49;7.30;99.90
15413;DHT22;7805;49.554;7.632;2023-11-22T00:50:18;7.30;99.90
15413;DHT22;7805;49.554;7.632;2023-11-22T00:52:47;7.30;99.90
15413;DHT22;7805;49.554;7.632;2023-11-22T00:55:13;7.20;99.90
15413;DHT22;7805;49.554;7.632;2023-11-22T00:57:39;7.10;99.90
15413;DHT22;7805;49.554;7.632;2023-11-22T01:00:05;7.10;99.90
15413;DHT22;7805;49.554;7.632;2023-11-22T01:02:34;7.00;99.90
15413;DHT22;7805;49.554;7.632;2023-11-22T01:05:02;7.00;99.90
15413;DHT22;7805;49.554;7.632;2023-11-22T01:07:27;6.90;99.90
15413;DHT22;7805;49.554;7.632;2023-11-22T01:09:53;6.90;99.90
15413;DHT22;7805;49.554;7.632;2023-11-22T01:12:18;6.90;99.90
15413;DHT22;7805;49.554;7.632;2023-11-22T01:14:44;6.90;99.90
15413;DHT22;7805;49.554;7.632;2023-11-22T01:17:10;7.00;99.90
15413;DHT22;7805;49.554;7.632;2023-11-22T01:19:35;7.00;99.90
15413;DHT22;7805;49.554;7.632;2023-11-22T01:22:01;6.90;99.90
15413;DHT22;7805;49.554;7.632;2023-11-22T01:24:26;6.90;99.90
15413;DHT22;7805;49.554;7.632;2023-11-22T01:26:53;6.90;99.90
15413;DHT22;7805;49.554;7.632;2023-11-22T01:29:19;6.80;99.90
15413;DHT22;7805;49.554;7.632;2023-11-22T01:31:44;6.70;99.90
15413;DHT22;7805;49.554;7.632;2023-11-22T01:34:10;6.60;99.90
15413;DHT22;7805;49.554;7.632;2023-11-22T01:36:37;6.60;99.90
15413;DHT22;7805;49.554;7.632;2023-11-22T01:39:03;6.50;99.90
15413;DHT22;7805;49.554;7.632;2023-11-22T01:41:29;6.40;99.90
15413;DHT22;7805;49.554;7.632;2023-11-22T01:43:55;6.40;99.90
15413;DHT22;7805;49.554;7.632;2023-11-22T01:46:24;6.40;99.90
15413;DHT22;7805;49.554;7.632;2023-11-22T01:48:51;6.30;99.90
15413;DHT22;7805;49.554;7.632;2023-11-22T01:51:24;6.30;99.90
15413;DHT22;7805;49.554;7.632;2023-11-22T01:53:52;6.30;99.90
15413;DHT22;7805;49.554;7.632;2023-11-22T01:56:25;6.20;99.90
15413;DHT22;7805;49.554;7.632;2023-11-22T01:58:57;6.20;99.90
15413;DHT22;7805;49.554;7.632;2023-11-22T02:01:26;6.10;99.90
15413;DHT22;7805;49.554;7.632;2023-11-22T02:03:52;6.10;99.90
15413;DHT22;7805;49.554;7.632;2023-11-22T02:06:19;6.10;99.90
15413;DHT22;7805;49.554;7.632;2023-11-22T02:08:46;6.10;99.90
15413;DHT22;7805;49.554;7.632;2023-11-22T02:11:12;6.00;99.90
15413;DHT22;7805;49.554;7.632;2023-11-22T02:13:38;6.10;99.90
15413;DHT22;7805;49.554;7.632;2023-11-22T02:16:04;6.10;99.90
15413;DHT22;7805;49.554;7.632;2023-11-22T02:18:30;6.10;99.90
15413;DHT22;7805;49.554;7.632;2023-11-22T02:20:56;6.10;99.90
15413;DHT22;7805;49.554;7.632;2023-11-22T02:23:22;6.10;99.90
15413;DHT22;7805;49.554;7.632;2023-11-22T02:25:47;6.10;99.90
15413;DHT22;7805;49.554;7.632;2023-11-22T02:28:14;6.10;99.90
15413;DHT22;7805;49.554;7.632;2023-11-22T02:30:40;6.10;99.90
15413;DHT22;7805;49.554;7.632;2023-11-22T02:33:05;6.10;99.90
15413;DHT22;7805;49.554;7.632;2023-11-22T02:35:31;6.10;99.90
15413;DHT22;7805;49.554;7.632;2023-11-22T02:37:58;6.00;99.90
15413;DHT22;7805;49.554;7.632;2023-11-22T02:40:23;6.00;99.90
15413;DHT22;7805;49.554;7.632;2023-11-22T02:42:51;6.00;99.90
15413;DHT22;7805;49.554;7.632;2023-11-22T02:45:17;5.90;99.90
15413;DHT22;7805;49.554;7.632;2023-11-22T02:47:44;5.90;99.90
15413;DHT22;7805;49.554;7.632;2023-11-22T02:50:10;5.80;99.90
15413;DHT22;7805;49.554;7.632;2023-11-22T02:52:37;5.80;99.90
15413;DHT22;7805;49.554;7.632;2023-11-22T02:55:03;5.80;99.90
15413;DHT22;7805;49.554;7.632;2023-11-22T02:57:30;5.80;99.90
15413;DHT22;7805;49.554;7.632;2023-11-22T02:59:57;5.80;99.90
15413;DHT22;7805;49.554;7.632;2023-11-22T03:02:23;5.80;99.90
15413;DHT22;7805;49.554;7.632;2023-11-22T03:04:52;5.70;99.90
15413;DHT22;7805;49.554;7.632;2023-11-22T03:07:18;5.70;99.90
15413;DHT22;7805;49.554;7.632;2023-11-22T03:09:44;5.70;99.90
15413;DHT22;7805;49.554;7.632;2023-11-22T03:12:11;5.60;99.90
15413;DHT22;7805;49.554;7.632;2023-11-22T03:14:38;5.60;99.90
15413;DHT22;7805;49.554;7.632;2023-11-22T03:17:04;5.60;99.90
15413;DHT22;7805;49.554;7.632;2023-11-22T03:19:30;5.50;99.90
15413;DHT22;7805;49.554;7.632;2023-11-22T03:21:55;5.50;99.90
15413;DHT22;7805;49.554;7.632;2023-11-22T03:24:22;5.50;99.90
15413;DHT22;7805;49.554;7.632;2023-11-22T03:26:47;5.50;99.90
15413;DHT22;7805;49.554;7.632;2023-11-22T03:29:14;5.50;99.90
15413;DHT22;7805;49.554;7.632;2023-11-22T03:31:45;5.50;99.90
15413;DHT22;7805;49.554;7.632;2023-11-22T03:34:13;5.40;99.90
15413;DHT22;7805;49.554;7.632;2023-11-22T03:36:40;5.40;99.90
15413;DHT22;7805;49.554;7.632;2023-11-22T03:39:06;5.50;99.90
15413;DHT22;7805;49.554;7.632;2023-11-22T03:41:31;5.50;99.90
15413;DHT22;7805;49.554;7.632;2023-11-22T03:43:57;5.40;99.90
15413;DHT22;7805;49.554;7.632;2023-11-22T03:46:22;5.40;99.90
15413;DHT22;7805;49.554;7.632;2023-11-22T03:48:48;5.50;99.90
15413;DHT22;7805;49.554;7.632;2023-11-22T03:51:13;5.50;99.90
15413;DHT22;7805;49.554;7.632;2023-11-22T03:53:39;5.50;99.90
15413;DHT22;7805;49.554;7.632;2023-11-22T03:56:04;5.50;99.90
15413;DHT22;7805;49.554;7.632;2023-11-22T03:58:30;5.50;99.90
15413;DHT22;7805;49.554;7.632;2023-11-22T04:00:56;5.50;99.90
15413;DHT22;7805;49.554;7.632;2023-11-22T04:03:22;5.50;99.90
15413;DHT22;7805;49.554;7.632;2023-11-22T04:05:48;5.60;99.90
15413;DHT22;7805;49.554;7.632;2023-11-22T04:08:13;5.60;99.90
15413;DHT22;7805;49.554;7.632;2023-11-22T04:10:39;5.60;99.90
15413;DHT22;7805;49.554;7.632;2023-11-22T04:13:04;5.60;99.90
15413;DHT22;7805;49.554;7.632;2023-11-22T04:15:30;5.60;99.90
15413;DHT22;7805;49.554;7.632;2023-11-22T04:17:56;5.60;99.90
15413;DHT22;7805;49.554;7.632;2023-11-22T04:20:21;5.60;99.90
15413;DHT22;7805;49.554;7.632;2023-11-22T04:22:47;5.60;99.90
15413;DHT22;7805;49.554;7.632;2023-11-22T04:25:12;5.60;99.90
15413;DHT22;7805;49.554;7.632;2023-11-22T04:27:41;5.70;99.90
15413;DHT22;7805;49.554;7.632;2023-11-22T04:30:08;5.60;99.90
15413;DHT22;7805;49.554;7.632;2023-11-22T04:32:35;5.70;99.90
15413;DHT22;7805;49.554;7.632;2023-11-22T04:35:02;5.70;99.90
15413;DHT22;7805;49.554;7.632;2023-11-22T04:37:29;5.70;99.90
15413;DHT22;7805;49.554;7.632;2023-11-22T04:39:58;5.60;99.90
15413;DHT22;7805;49.554;7.632;2023-11-22T04:42:23;5.60;99.90
15413;DHT22;7805;49.554;7.632;2023-11-22T04:44:49;5.60;99.90
15413;DHT22;7805;49.554;7.632;2023-11-22T04:47:15;5.60;99.90
15413;DHT22;7805;49.554;7.632;2023-11-22T04:49:40;5.60;99.90
15413;DHT22;7805;49.554;7.632;2023-11-22T04:52:06;5.50;99.90
15413;DHT22;7805;49.554;7.632;2023-11-22T04:54:31;5.40;99.90
15413;DHT22;7805;49.554;7.632;2023-11-22T04:56:58;5.40;99.90
15413;DHT22;7805;49.554;7.632;2023-11-22T04:59:24;5.40;99.90
15413;DHT22;7805;49.554;7.632;2023-11-22T05:01:49;5.40;99.90
15413;DHT22;7805;49.554;7.632;2023-11-22T05:04:15;5.30;99.90
15413;DHT22;7805;49.554;7.632;2023-11-22T05:06:40;5.30;99.90
15413;DHT22;7805;49.554;7.632;2023-11-22T05:09:06;5.20;99.90
15413;DHT22;7805;49.554;7.632;2023-11-22T05:11:31;5.20;99.90
15413;DHT22;7805;49.554;7.632;2023-11-22T05:13:57;5.20;99.90
15413;DHT22;7805;49.554;7.632;2023-11-22T05:16:23;5.10;99.90
15413;DHT22;7805;49.554;7.632;2023-11-22T05:18:49;5.00;99.90
15413;DHT22;7805;49.554;7.632;2023-11-22T05:21:15;4.90;99.90
15413;DHT22;7805;49.554;7.632;2023-11-22T05:23:41;5.30;99.90
15413;DHT22;7805;49.554;7.632;2023-11-22T05:26:06;4.80;99.90
15413;DHT22;7805;49.554;7.632;2023-11-22T05:28:33;4.80;99.90
15413;DHT22;7805;49.554;7.632;2023-11-22T05:30:59;4.80;99.90
15413;DHT22;7805;49.554;7.632;2023-11-22T05:33:25;4.80;99.90
15413;DHT22;7805;49.554;7.632;2023-11-22T05:35:50;4.80;99.90
15413;DHT22;7805;49.554;7.632;2023-11-22T05:38:16;4.70;99.90
15413;DHT22;7805;49.554;7.632;2023-11-22T05:40:42;4.70;99.90
15413;DHT22;7805;49.554;7.632;2023-11-22T05:43:08;4.70;99.90
15413;DHT22;7805;49.554;7.632;2023-11-22T05:45:35;4.60;99.90
15413;DHT22;7805;49.554;7.632;2023-11-22T05:48:01;4.60;99.90
15413;DHT22;7805;49.554;7.632;2023-11-22T05:50:26;4.50;99.90
15413;DHT22;7805;49.554;7.632;2023-11-22T05:52:52;4.50;99.90
15413;DHT22;7805;49.554;7.632;2023-11-22T05:55:18;4.40;99.90
15413;DHT22;7805;49.554;7.632;2023-11-22T05:57:44;4.40;99.90
15413;DHT22;7805;49.554;7.632;2023-11-22T06:00:10;4.30;99.90
15413;DHT22;7805;49.554;7.632;2023-11-22T06:02:36;4.30;99.90
15413;DHT22;7805;49.554;7.632;2023-11-22T06:05:04;4.30;99.90
15413;DHT22;7805;49.554;7.632;2023-11-22T06:07:31;4.30;99.90
15413;DHT22;7805;49.554;7.632;2023-11-22T06:09:57;4.40;99.90
15413;DHT22;7805;49.554;7.632;2023-11-22T06:12:23;4.30;99.90
15413;DHT22;7805;49.554;7.632;2023-11-22T06:14:48;4.20;99.90
15413;DHT22;7805;49.554;7.632;2023-11-22T06:17:14;4.20;99.90
15413;DHT22;7805;49.554;7.632;2023-11-22T06:19:40;4.20;99.90
15413;DHT22;7805;49.554;7.632;2023-11-22T06:22:07;4.20;99.90
15413;DHT22;7805;49.554;7.632;2023-11-22T06:24:33;4.20;99.90
15413;DHT22;7805;49.554;7.632;2023-11-22T06:26:59;4.10;99.90
15413;DHT22;7805;49.554;7.632;2023-11-22T06:29:25;4.10;99.90
15413;DHT22;7805;49.554;7.632;2023-11-22T06:31:50;4.10;99.90
15413;DHT22;7805;49.554;7.632;2023-11-22T06:34:16;4.10;99.90
15413;DHT22;7805;49.554;7.632;2023-11-22T06:36:42;4.10;99.90
15413;DHT22;7805;49.554;7.632;2023-11-22T06:39:07;4.10;99.90
15413;DHT22;7805;49.554;7.632;2023-11-22T06:41:34;4.10;99.90
15413;DHT22;7805;49.554;7.632;2023-11-22T06:44:00;4.00;99.90
15413;DHT22;7805;49.554;7.632;2023-11-22T06:46:25;3.80;99.90
15413;DHT22;7805;49.554;7.632;2023-11-22T06:48:51;3.70;99.90
15413;DHT22;7805;49.554;7.632;2023-11-22T06:51:16;3.70;99.90
15413;DHT22;7805;49.554;7.632;2023-11-22T06:53:44;3.70;99.90
15413;DHT22;7805;49.554;7.632;2023-11-22T06:56:10;3.80;99.90
15413;DHT22;7805;49.554;7.632;2023-11-22T06:58:36;3.80;99.90
15413;DHT22;7805;49.554;7.632;2023-11-22T07:01:01;3.80;99.90
15413;DHT22;7805;49.554;7.632;2023-11-22T07:03:27;3.80;99.90
15413;DHT22;7805;49.554;7.632;2023-11-22T07:05:53;3.80;99.90
15413;DHT22;7805;49.554;7.632;2023-11-22T07:08:18;3.80;99.90
15413;DHT22;7805;49.554;7.632;2023-11-22T07:10:45;3.80;99.90
15413;DHT22;7805;49.554;7.632;2023-11-22T07:13:11;3.80;99.90
15413;DHT22;7805;49.554;7.632;2023-11-22T07:15:38;3.80;99.90
15413;DHT22;7805;49.554;7.632;2023-11-22T07:18:04;3.60;99.90
15413;DHT22;7805;49.554;7.632;2023-11-22T07:20:30;3.60;99.90
15413;DHT22;7805;49.554;7.632;2023-11-22T07:22:56;3.70;99.90
15413;DHT22;7805;49.554;7.632;2023-11-22T07:25:23;3.70;99.90
15413;DHT22;7805;49.554;7.632;2023-11-22T07:27:51;3.60;99.90
15413;DHT22;7805;49.554;7.632;2023-11-22T07:30:17;3.60;99.90
15413;DHT22;7805;49.554;7.632;2023-11-22T07:32:45;3.50;99.90
15413;DHT22;7805;49.554;7.632;2023-11-22T07:35:11;3.50;99.90
15413;DHT22;7805;49.554;7.632;2023-11-22T07:37:41;3.60;99.90
15413;DHT22;7805;49.554;7.632;2023-11-22T07:40:09;3.60;99.90
15413;DHT22;7805;49.554;7.632;2023-11-22T07:42:38;3.60;99.90
15413;DHT22;7805;49.554;7.632;2023-11-22T07:45:04;3.60;99.90
15413;DHT22;7805;49.554;7.632;2023-11-22T07:47:29;3.60;99.90
15413;DHT22;7805;49.554;7.632;2023-11-22T07:49:55;3.70;99.90
15413;DHT22;7805;49.554;7.632;2023-11-22T07:52:21;3.70;99.90
15413;DHT22;7805;49.554;7.632;2023-11-22T07:54:47;3.70;99.90
15413;DHT22;7805;49.554;7.632;2023-11-22T07:57:13;3.80;99.90
15413;DHT22;7805;49.554;7.632;2023-11-22T07:59:39;3.80;99.90
15413;DHT22;7805;49.554;7.632;2023-11-22T08:02:05;3.80;99.90
15413;DHT22;7805;49.554;7.632;2023-11-22T08:04:36;3.80;99.90
15413;DHT22;7805;49.554;7.632;2023-11-22T08:07:03;3.80;99.90
15413;DHT22;7805;49.554;7.632;2023-11-22T08:09:30;3.90;99.90
15413;DHT22;7805;49.554;7.632;2023-11-22T08:11:58;3.90;99.90
15413;DHT22;7805;49.554;7.632;2023-11-22T08:14:26;3.90;99.90
15413;DHT22;7805;49.554;7.632;2023-11-22T08:16:53;3.90;99.90
15413;DHT22;7805;49.554;7.632;2023-11-22T08:19:19;4.00;99.90
15413;DHT22;7805;49.554;7.632;2023-11-22T08:21:44;4.10;99.90
15413;DHT22;7805;49.554;7.632;2023-11-22T08:24:10;4.10;99.90
15413;DHT22;7805;49.554;7.632;2023-11-22T08:26:38;4.40;99.90
15413;DHT22;7805;49.554;7.632;2023-11-22T08:29:04;5.00;99.90
15413;DHT22;7805;49.554;7.632;2023-11-22T08:31:30;5.60;99.90
15413;DHT22;7805;49.554;7.632;2023-11-22T08:33:56;6.50;99.90
15413;DHT22;7805;49.554;7.632;2023-11-22T08:36:22;6.60;99.90
15413;DHT22;7805;49.554;7.632;2023-11-22T08:38:49;6.30;99.90
15413;DHT22;7805;49.554;7.632;2023-11-22T08:41:14;6.10;99.90
15413;DHT22;7805;49.554;7.632;2023-11-22T08:43:40;6.00;99.90
15413;DHT22;7805;49.554;7.632;2023-11-22T08:46:06;5.70;99.90
15413;DHT22;7805;49.554;7.632;2023-11-22T08:48:34;5.50;99.90
15413;DHT22;7805;49.554;7.632;2023-11-22T08:51:00;5.50;99.90
15413;DHT22;7805;49.554;7.632;2023-11-22T08:53:26;5.60;99.90
15413;DHT22;7805;49.554;7.632;2023-11-22T08:55:52;7.20;99.90
15413;DHT22;7805;49.554;7.632;2023-11-22T08:58:20;5.70;99.90
15413;DHT22;7805;49.554;7.632;2023-11-22T09:00:45;5.80;99.90
15413;DHT22;7805;49.554;7.632;2023-11-22T09:03:11;5.70;99.90
15413;DHT22;7805;49.554;7.632;2023-11-22T09:05:41;5.70;99.90
15413;DHT22;7805;49.554;7.632;2023-11-22T09:08:08;5.90;99.90
15413;DHT22;7805;49.554;7.632;2023-11-22T09:10:39;6.10;99.90
15413;DHT22;7805;49.554;7.632;2023-11-22T09:13:05;6.30;99.90
15413;DHT22;7805;49.554;7.632;2023-11-22T09:15:31;6.90;99.90
15413;DHT22;7805;49.554;7.632;2023-11-22T09:17:59;7.20;99.90
15413;DHT22;7805;49.554;7.632;2023-11-22T09:20:25;7.10;99.90
15413;DHT22;7805;49.554;7.632;2023-11-22T09:22:52;7.30;99.90
15413;DHT22;7805;49.554;7.632;2023-11-22T09:25:22;7.00;99.90
15413;DHT22;7805;49.554;7.632;2023-11-22T09:27:50;7.10;99.90
15413;DHT22;7805;49.554;7.632;2023-11-22T09:30:19;7.40;99.90
15413;DHT22;7805;49.554;7.632;2023-11-22T09:33:01;8.00;99.90
15413;DHT22;7805;49.554;7.632;2023-11-22T09:35:27;8.50;99.90
15413;DHT22;7805;49.554;7.632;2023-11-22T09:38:00;8.50;99.90
15413;DHT22;7805;49.554;7.632;2023-11-22T09:40:27;8.60;99.90
15413;DHT22;7805;49.554;7.632;2023-11-22T09:42:55;8.90;99.90
15413;DHT22;7805;49.554;7.632;2023-11-22T09:45:21;9.20;99.90
15413;DHT22;7805;49.554;7.632;2023-11-22T09:47:47;9.30;99.90
15413;DHT22;7805;49.554;7.632;2023-11-22T09:50:23;9.10;99.90
15413;DHT22;7805;49.554;7.632;2023-11-22T09:52:51;9.00;99.20
15413;DHT22;7805;49.554;7.632;2023-11-22T09:55:20;8.80;99.90
15413;DHT22;7805;49.554;7.632;2023-11-22T09:57:48;9.50;99.90
15413;DHT22;7805;49.554;7.632;2023-11-22T10:00:14;9.90;99.90
15413;DHT22;7805;49.554;7.632;2023-11-22T10:02:44;9.90;97.30
15413;DHT22;7805;49.554;7.632;2023-11-22T10:05:10;9.60;95.80
15413;DHT22;7805;49.554;7.632;2023-11-22T10:07:37;9.60;97.40
15413;DHT22;7805;49.554;7.632;2023-11-22T10:10:04;9.80;98.50
15413;DHT22;7805;49.554;7.632;2023-11-22T10:12:31;9.50;93.60
15413;DHT22;7805;49.554;7.632;2023-11-22T10:15:13;9.30;95.80
15413;DHT22;7805;49.554;7.632;2023-11-22T10:17:39;8.90;95.50
15413;DHT22;7805;49.554;7.632;2023-11-22T10:20:05;8.80;97.50
15413;DHT22;7805;49.554;7.632;2023-11-22T10:22:44;8.90;97.30
15413;DHT22;7805;49.554;7.632;2023-11-22T10:25:11;8.70;96.20
15413;DHT22;7805;49.554;7.632;2023-11-22T10:27:38;8.50;97.60
15413;DHT22;7805;49.554;7.632;2023-11-22T10:30:04;8.60;96.80
15413;DHT22;7805;49.554;7.632;2023-11-22T10:32:30;9.00;97.70
15413;DHT22;7805;49.554;7.632;2023-11-22T10:34:56;9.40;96.30
15413;DHT22;7805;49.554;7.632;2023-11-22T10:37:21;9.50;93.30
15413;DHT22;7805;49.554;7.632;2023-11-22T10:39:52;9.80;92.80
15413;DHT22;7805;49.554;7.632;2023-11-22T10:42:19;9.80;91.80
15413;DHT22;7805;49.554;7.632;2023-11-22T10:44:46;9.40;90.00
15413;DHT22;7805;49.554;7.632;2023-11-22T10:47:15;9.40;92.50
15413;DHT22;7805;49.554;7.632;2023-11-22T10:49:42;9.40;91.50
15413;DHT22;7805;49.554;7.632;2023-11-22T10:52:12;9.60;92.20
15413;DHT22;7805;49.554;7.632;2023-11-22T10:54:44;9.70;91.60
15413;DHT22;7805;49.554;7.632;2023-11-22T10:57:13;9.60;92.40
15413;DHT22;7805;49.554;7.632;2023-11-22T10:59:41;9.50;92.20
15413;DHT22;7805;49.554;7.632;2023-11-22T11:02:12;9.50;91.60
15413;DHT22;7805;49.554;7.632;2023-11-22T11:04:53;9.50;91.80
15413;DHT22;7805;49.554;7.632;2023-11-22T11:07:21;9.30;91.80
15413;DHT22;7805;49.554;7.632;2023-11-22T11:09:50;8.70;89.60
15413;DHT22;7805;49.554;7.632;2023-11-22T11:12:17;8.60;91.60
15413;DHT22;7805;49.554;7.632;2023-11-22T11:14:43;8.80;91.80
15413;DHT22;7805;49.554;7.632;2023-11-22T11:17:12;8.40;90.10
15413;DHT22;7805;49.554;7.632;2023-11-22T11:19:40;8.30;88.20
15413;DHT22;7805;49.554;7.632;2023-11-22T11:22:10;8.60;89.50
15413;DHT22;7805;49.554;7.632;2023-11-22T11:24:40;9.20;88.60
15413;DHT22;7805;49.554;7.632;2023-11-22T11:27:07;9.90;88.20
15413;DHT22;7805;49.554;7.632;2023-11-22T11:29:35;10.30;87.30
15413;DHT22;7805;49.554;7.632;2023-11-22T11:32:10;10.20;84.40
15413;DHT22;7805;49.554;7.632;2023-11-22T11:34:47;10.60;84.90
15413;DHT22;7805;49.554;7.632;2023-11-22T11:37:14;10.70;81.00
15413;DHT22;7805;49.554;7.632;2023-11-22T11:39:40;10.70;79.90
15413;DHT22;7805;49.554;7.632;2023-11-22T11:42:10;11.00;81.20
15413;DHT22;7805;49.554;7.632;2023-11-22T11:44:36;11.20;79.40
15413;DHT22;7805;49.554;7.632;2023-11-22T11:47:09;11.70;82.70
15413;DHT22;7805;49.554;7.632;2023-11-22T11:49:37;11.80;76.90
15413;DHT22;7805;49.554;7.632;2023-11-22T11:52:04;11.90;79.00
15413;DHT22;7805;49.554;7.632;2023-11-22T11:54:30;12.00;80.30
15413;DHT22;7805;49.554;7.632;2023-11-22T11:56:59;11.80;77.50
15413;DHT22;7805;49.554;7.632;2023-11-22T11:59:25;12.00;77.60
15413;DHT22;7805;49.554;7.632;2023-11-22T12:01:55;12.30;78.30
15413;DHT22;7805;49.554;7.632;2023-11-22T12:04:24;12.40;76.50
15413;DHT22;7805;49.554;7.632;2023-11-22T12:06:50;12.40;77.10
15413;DHT22;7805;49.554;7.632;2023-11-22T12:09:23;12.40;74.70
15413;DHT22;7805;49.554;7.632;2023-11-22T12:11:51;12.30;74.60
15413;DHT22;7805;49.554;7.632;2023-11-22T12:14:19;12.60;75.90
15413;DHT22;7805;49.554;7.632;2023-11-22T12:16:45;12.10;70.70
15413;DHT22;7805;49.554;7.632;2023-11-22T12:19:24;11.90;71.80
15413;DHT22;7805;49.554;7.632;2023-11-22T12:21:51;11.60;72.20
15413;DHT22;7805;49.554;7.632;2023-11-22T12:24:17;11.20;74.20
15413;DHT22;7805;49.554;7.632;2023-11-22T12:26:50;11.20;76.00
15413;DHT22;7805;49.554;7.632;2023-11-22T12:29:16;11.20;73.50
15413;DHT22;7805;49.554;7.632;2023-11-22T12:31:52;11.60;75.60
15413;DHT22;7805;49.554;7.632;2023-11-22T12:34:22;12.30;74.50
15413;DHT22;7805;49.554;7.632;2023-11-22T12:36:49;12.60;71.90
15413;DHT22;7805;49.554;7.632;2023-11-22T12:39:15;12.90;70.50
15413;DHT22;7805;49.554;7.632;2023-11-22T12:41:44;13.20;70.50
15413;DHT22;7805;49.554;7.632;2023-11-22T12:44:11;13.90;69.50
15413;DHT22;7805;49.554;7.632;2023-11-22T12:46:51;14.00;67.40
15413;DHT22;7805;49.554;7.632;2023-11-22T12:49:22;14.60;67.00
15413;DHT22;7805;49.554;7.632;2023-11-22T12:51:49;13.70;64.60
15413;DHT22;7805;49.554;7.632;2023-11-22T12:54:15;12.60;64.70
15413;DHT22;7805;49.554;7.632;2023-11-22T12:56:42;13.00;69.80
15413;DHT22;7805;49.554;7.632;2023-11-22T12:59:08;13.90;68.50
15413;DHT22;7805;49.554;7.632;2023-11-22T13:01:34;14.70;64.40
15413;DHT22;7805;49.554;7.632;2023-11-22T13:04:01;15.40;62.80
15413;DHT22;7805;49.554;7.632;2023-11-22T13:06:26;15.50;60.50
15413;DHT22;7805;49.554;7.632;2023-11-22T13:08:52;15.70;60.60
15413;DHT22;7805;49.554;7.632;2023-11-22T13:11:19;15.60;60.00
15413;DHT22;7805;49.554;7.632;2023-11-22T13:13:44;16.40;61.10
15413;DHT22;7805;49.554;7.632;2023-11-22T13:16:12;15.40;57.80
15413;DHT22;7805;49.554;7.632;2023-11-22T13:18:37;16.00;58.80
15413;DHT22;7805;49.554;7.632;2023-11-22T13:21:04;15.80;58.50
15413;DHT22;7805;49.554;7.632;2023-11-22T13:23:29;16.50;58.70
15413;DHT22;7805;49.554;7.632;2023-11-22T13:25:55;17.10;57.80
15413;DHT22;7805;49.554;7.632;2023-11-22T13:28:20;17.60;56.90
15413;DHT22;7805;49.554;7.632;2023-11-22T13:30:46;18.50;55.60
15413;DHT22;7805;49.554;7.632;2023-11-22T13:33:14;18.20;55.10
15413;DHT22;7805;49.554;7.632;2023-11-22T13:35:39;18.90;54.80
15413;DHT22;7805;49.554;7.632;2023-11-22T13:38:06;19.20;53.60
15413;DHT22;7805;49.554;7.632;2023-11-22T13:40:41;19.40;52.20
15413;DHT22;7805;49.554;7.632;2023-11-22T13:43:11;18.60;51.30
15413;DHT22;7805;49.554;7.632;2023-11-22T13:45:38;17.90;51.70
15413;DHT22;7805;49.554;7.632;2023-11-22T13:48:07;17.10;52.40
15413;DHT22;7805;49.554;7.632;2023-11-22T13:50:35;17.00;53.80
15413;DHT22;7805;49.554;7.632;2023-11-22T13:53:01;16.90;52.70
15413;DHT22;7805;49.554;7.632;2023-11-22T13:55:29;15.90;53.10
15413;DHT22;7805;49.554;7.632;2023-11-22T13:57:56;15.40;54.50
15413;DHT22;7805;49.554;7.632;2023-11-22T14:00:24;15.60;55.70
15413;DHT22;7805;49.554;7.632;2023-11-22T14:02:53;15.60;55.70
15413;DHT22;7805;49.554;7.632;2023-11-22T14:05:25;15.00;55.20
15413;DHT22;7805;49.554;7.632;2023-11-22T14:07:52;14.60;55.50
15413;DHT22;7805;49.554;7.632;2023-11-22T14:10:19;14.20;56.90
15413;DHT22;7805;49.554;7.632;2023-11-22T14:12:47;13.50;55.50
15413;DHT22;7805;49.554;7.632;2023-11-22T14:15:13;13.40;57.90
15413;DHT22;7805;49.554;7.632;2023-11-22T14:17:39;13.50;58.10
15413;DHT22;7805;49.554;7.632;2023-11-22T14:20:09;13.80;59.70
15413;DHT22;7805;49.554;7.632;2023-11-22T14:22:35;13.30;58.10
15413;DHT22;7805;49.554;7.632;2023-11-22T14:25:01;12.60;58.40
15413;DHT22;7805;49.554;7.632;2023-11-22T14:27:28;12.30;59.80
15413;DHT22;7805;49.554;7.632;2023-11-22T14:29:56;12.10;60.60
15413;DHT22;7805;49.554;7.632;2023-11-22T14:32:22;11.90;61.20
15413;DHT22;7805;49.554;7.632;2023-11-22T14:34:48;11.30;61.90
15413;DHT22;7805;49.554;7.632;2023-11-22T14:37:13;10.80;62.70
15413;DHT22;7805;49.554;7.632;2023-11-22T14:39:40;10.30;63.50
15413;DHT22;7805;49.554;7.632;2023-11-22T14:42:06;10.10;65.20
15413;DHT22;7805;49.554;7.632;2023-11-22T14:44:33;9.90;66.00
15413;DHT22;7805;49.554;7.632;2023-11-22T14:46:59;9.80;66.60
15413;DHT22;7805;49.554;7.632;2023-11-22T14:49:27;9.60;67.40
15413;DHT22;7805;49.554;7.632;2023-11-22T14:51:52;9.30;68.10
15413;DHT22;7805;49.554;7.632;2023-11-22T14:54:18;9.10;69.40
15413;DHT22;7805;49.554;7.632;2023-11-22T14:56:43;8.90;69.90
15413;DHT22;7805;49.554;7.632;2023-11-22T14:59:10;8.50;71.00
15413;DHT22;7805;49.554;7.632;2023-11-22T15:01:36;7.00;71.80
15413;DHT22;7805;49.554;7.632;2023-11-22T15:04:02;8.10;74.10
15413;DHT22;7805;49.554;7.632;2023-11-22T15:06:27;7.80;74.30
15413;DHT22;7805;49.554;7.632;2023-11-22T15:08:53;7.80;76.50
15413;DHT22;7805;49.554;7.632;2023-11-22T15:11:19;7.80;78.10
15413;DHT22;7805;49.554;7.632;2023-11-22T15:13:45;7.80;78.90
15413;DHT22;7805;49.554;7.632;2023-11-22T15:16:10;7.70;80.80
15413;DHT22;7805;49.554;7.632;2023-11-22T15:18:41;7.80;82.80
15413;DHT22;7805;49.554;7.632;2023-11-22T15:21:07;7.80;84.80
15413;DHT22;7805;49.554;7.632;2023-11-22T15:23:33;7.80;86.10
15413;DHT22;7805;49.554;7.632;2023-11-22T15:25:59;7.70;86.50
15413;DHT22;7805;49.554;7.632;2023-11-22T15:28:25;7.60;87.90
15413;DHT22;7805;49.554;7.632;2023-11-22T15:30:51;7.50;89.20
15413;DHT22;7805;49.554;7.632;2023-11-22T15:33:24;7.30;89.00
15413;DHT22;7805;49.554;7.632;2023-11-22T15:35:49;7.10;90.30
15413;DHT22;7805;49.554;7.632;2023-11-22T15:38:15;6.90;91.00
15413;DHT22;7805;49.554;7.632;2023-11-22T15:40:41;6.90;91.50
15413;DHT22;7805;49.554;7.632;2023-11-22T15:43:08;6.80;91.90
15413;DHT22;7805;49.554;7.632;2023-11-22T15:45:34;6.70;92.60
15413;DHT22;7805;49.554;7.632;2023-11-22T15:48:01;6.70;93.00
15413;DHT22;7805;49.554;7.632;2023-11-22T15:50:26;6.60;93.70
15413;DHT22;7805;49.554;7.632;2023-11-22T15:52:52;6.60;94.60
15413;DHT22;7805;49.554;7.632;2023-11-22T15:55:18;6.40;95.50
15413;DHT22;7805;49.554;7.632;2023-11-22T15:57:44;6.40;96.10